createdAt,value
2022-10-02T00:02:12.750Z,13.08
2022-10-02T00:05:09.201Z,13.07
2022-10-02T00:08:21.986Z,13.04
2022-10-02T00:11:38.414Z,13.03
2022-10-02T00:14:27.784Z,13.02
2022-10-02T00:17:37.004Z,13.04
2022-10-02T00:20:38.338Z,13.07
2022-10-02T00:23:47.377Z,13.09
2022-10-02T00:26:47.098Z,13.13
2022-10-02T00:29:51.441Z,13.13
2022-10-02T00:32:39.144Z,13.15
2022-10-02T00:35:33.806Z,13.17
2022-10-02T00:38:23.287Z,13.16
2022-10-02T00:41:16.369Z,13.19
2022-10-02T00:44:16.340Z,13.21
2022-10-02T00:47:31.975Z,13.20
2022-10-02T00:50:22.780Z,13.21
2022-10-02T00:53:10.241Z,13.22
2022-10-02T00:56:14.068Z,13.22
2022-10-02T00:59:20.365Z,13.23
2022-10-02T01:02:49.385Z,13.25
2022-10-02T01:05:34.859Z,13.24
2022-10-02T01:08:21.142Z,13.25
2022-10-02T01:11:07.876Z,13.24
2022-10-02T01:13:53.073Z,13.25
2022-10-02T01:16:41.330Z,13.26
2022-10-02T01:19:41.377Z,13.27
2022-10-02T01:22:42.400Z,13.29
2022-10-02T01:25:27.841Z,13.29
2022-10-02T01:28:12.577Z,13.33
2022-10-02T01:31:04.480Z,13.33
2022-10-02T01:33:50.184Z,13.33
2022-10-02T01:36:35.382Z,13.36
2022-10-02T01:39:21.931Z,13.33
2022-10-02T01:42:06.963Z,13.36
2022-10-02T01:44:51.967Z,13.36
2022-10-02T01:47:46.384Z,13.36
2022-10-02T01:50:31.102Z,13.36
2022-10-02T01:53:43.395Z,13.34
2022-10-02T01:56:44.985Z,13.31
2022-10-02T01:59:35.501Z,13.30
2022-10-02T02:02:46.425Z,13.29
2022-10-02T02:06:06.737Z,13.30
2022-10-02T02:09:02.024Z,13.32
2022-10-02T02:12:01.229Z,13.33
2022-10-02T02:14:50.323Z,13.33
2022-10-02T02:17:50.266Z,13.31
2022-10-02T02:20:46.781Z,13.33
2022-10-02T02:23:35.580Z,13.33
2022-10-02T02:26:22.313Z,13.34
2022-10-02T02:29:09.010Z,13.33
2022-10-02T02:31:57.756Z,13.32
2022-10-02T02:34:47.665Z,13.35
2022-10-02T02:37:36.940Z,13.37
2022-10-02T02:40:28.924Z,13.39
2022-10-02T02:43:34.501Z,13.40
2022-10-02T02:46:31.777Z,13.42
2022-10-02T02:49:16.718Z,13.43
2022-10-02T02:52:04.719Z,13.45
2022-10-02T02:55:02.958Z,13.43
2022-10-02T02:57:54.555Z,13.42
2022-10-02T03:00:39.456Z,13.40
2022-10-02T03:03:25.110Z,13.39
2022-10-02T03:06:16.644Z,13.36
2022-10-02T03:09:02.014Z,13.32
2022-10-02T03:12:05.899Z,13.31
2022-10-02T03:15:13.189Z,13.26
2022-10-02T03:18:03.929Z,13.23
2022-10-02T03:21:07.569Z,13.19
2022-10-02T03:24:15.511Z,13.12
2022-10-02T03:27:08.986Z,13.09
2022-10-02T03:30:02.214Z,13.03
2022-10-02T03:32:52.968Z,12.99
2022-10-02T03:35:38.280Z,12.95
2022-10-02T03:38:24.781Z,12.91
2022-10-02T03:41:10.493Z,12.90
2022-10-02T03:43:55.562Z,12.86
2022-10-02T03:46:40.813Z,12.85
2022-10-02T03:49:25.978Z,12.81
2022-10-02T03:52:16.001Z,12.80
2022-10-02T03:55:12.894Z,12.75
2022-10-02T03:57:59.267Z,12.73
2022-10-02T04:01:01.406Z,12.72
2022-10-02T04:03:55.403Z,12.72
2022-10-02T04:06:50.302Z,12.70
2022-10-02T04:10:04.541Z,12.68
2022-10-02T04:12:52.623Z,12.65
2022-10-02T04:15:52.328Z,12.65
2022-10-02T04:18:42.910Z,12.64
2022-10-02T04:21:42.933Z,12.62
2022-10-02T04:24:46.998Z,12.58
2022-10-02T04:27:39.991Z,12.59
2022-10-02T04:30:25.205Z,12.56
2022-10-02T04:33:17.215Z,12.53
2022-10-02T04:36:08.203Z,12.51
2022-10-02T04:39:12.655Z,12.47
2022-10-02T04:42:14.645Z,12.44
2022-10-02T04:45:02.210Z,12.43
2022-10-02T04:48:22.560Z,12.42
2022-10-02T04:51:26.737Z,12.39
2022-10-02T04:54:29.794Z,12.39
2022-10-02T04:57:20.486Z,12.38
2022-10-02T05:00:12.919Z,12.39
2022-10-02T05:03:10.302Z,12.38
2022-10-02T05:06:01.238Z,12.38
2022-10-02T05:09:04.470Z,12.41
2022-10-02T05:12:28.787Z,12.37
2022-10-02T05:15:19.695Z,12.38
2022-10-02T05:18:41.127Z,12.35
2022-10-02T05:21:44.009Z,12.34
2022-10-02T05:24:47.192Z,12.34
2022-10-02T05:27:50.349Z,12.33
2022-10-02T05:31:10.705Z,12.31
2022-10-02T05:34:19.826Z,12.29
2022-10-02T05:37:15.587Z,12.23
2022-10-02T05:40:18.981Z,12.18
2022-10-02T05:43:06.916Z,12.12
2022-10-02T05:45:58.468Z,12.11
2022-10-02T05:49:13.600Z,12.06
2022-10-02T05:52:37.179Z,12.08
2022-10-02T05:55:27.888Z,12.03
2022-10-02T05:58:24.276Z,12.01
2022-10-02T06:01:19.435Z,11.87
2022-10-02T06:04:33.249Z,11.72
2022-10-02T06:07:20.186Z,11.55
2022-10-02T06:10:18.711Z,11.32
2022-10-02T06:13:30.476Z,11.22
2022-10-02T06:16:51.203Z,11.14
2022-10-02T06:19:45.146Z,11.00
2022-10-02T06:22:39.366Z,10.94
2022-10-02T06:25:33.239Z,10.83
2022-10-02T06:28:27.209Z,10.77
2022-10-02T06:31:30.678Z,10.73
2022-10-02T06:34:15.878Z,10.73
2022-10-02T06:37:17.591Z,10.75
2022-10-02T06:40:30.446Z,10.72
2022-10-02T06:43:33.690Z,10.71
2022-10-02T06:46:35.639Z,10.68
2022-10-02T06:49:32.992Z,10.73
2022-10-02T06:52:38.288Z,10.72
2022-10-02T06:55:40.476Z,10.71
2022-10-02T06:58:34.396Z,10.71
2022-10-02T07:01:31.037Z,10.74
2022-10-02T07:04:31.574Z,10.78
2022-10-02T07:07:19.282Z,10.86
2022-10-02T07:10:25.524Z,10.95
2022-10-02T07:13:25.373Z,11.01
2022-10-02T07:16:37.978Z,11.08
2022-10-02T07:19:38.174Z,11.25
2022-10-02T07:22:43.867Z,11.32
2022-10-02T07:25:35.825Z,11.33
2022-10-02T07:28:43.043Z,11.35
2022-10-02T07:32:00.182Z,11.41
2022-10-02T07:35:26.632Z,11.64
2022-10-02T07:38:48.295Z,11.72
2022-10-02T07:41:52.190Z,11.86
2022-10-02T07:45:03.475Z,12.03
2022-10-02T07:48:18.852Z,11.95
2022-10-02T07:51:26.582Z,11.90
2022-10-02T07:54:33.377Z,11.72
2022-10-02T07:58:02.974Z,11.68
2022-10-02T08:01:13.304Z,11.68
2022-10-02T08:04:36.922Z,11.44
2022-10-02T08:07:22.461Z,11.49
2022-10-02T08:10:12.293Z,11.51
2022-10-02T08:13:04.419Z,11.51
2022-10-02T08:15:54.955Z,11.43
2022-10-02T08:18:48.489Z,11.73
2022-10-02T08:21:43.115Z,12.19
2022-10-02T08:24:36.041Z,12.35
2022-10-02T08:27:28.198Z,12.41
2022-10-02T08:30:13.978Z,12.45
2022-10-02T08:32:58.589Z,12.57
2022-10-02T08:36:18.870Z,12.56
2022-10-02T08:39:09.453Z,12.36
2022-10-02T08:42:19.117Z,12.14
2022-10-02T08:45:23.615Z,12.03
2022-10-02T08:48:48.989Z,11.98
2022-10-02T08:52:00.331Z,12.00
2022-10-02T08:55:38.025Z,11.81
2022-10-02T08:58:43.310Z,11.75
2022-10-02T09:01:38.644Z,11.78
2022-10-02T09:05:00.303Z,11.90
2022-10-02T09:08:07.661Z,11.88
2022-10-02T09:11:01.886Z,11.93
2022-10-02T09:14:12.093Z,11.96
2022-10-02T09:17:15.683Z,11.95
2022-10-02T09:20:19.164Z,12.08
2022-10-02T09:23:22.648Z,12.17
2022-10-02T09:26:19.150Z,12.12
2022-10-02T09:29:32.349Z,12.27
2022-10-02T09:32:42.608Z,12.20
2022-10-02T09:35:54.538Z,12.23
2022-10-02T09:38:55.174Z,12.28
2022-10-02T09:41:49.682Z,12.22
2022-10-02T09:45:01.231Z,12.05
2022-10-02T09:48:04.684Z,12.09
2022-10-02T09:51:26.866Z,11.98
2022-10-02T09:54:21.058Z,12.12
2022-10-02T09:57:31.120Z,12.04
2022-10-02T10:00:44.224Z,11.94
2022-10-02T10:03:47.186Z,12.02
2022-10-02T10:06:44.039Z,11.96
2022-10-02T10:09:41.153Z,12.08
2022-10-02T10:12:48.925Z,12.22
2022-10-02T10:15:56.976Z,12.51
2022-10-02T10:18:47.391Z,12.74
2022-10-02T10:21:58.270Z,12.54
2022-10-02T10:25:09.642Z,12.44
2022-10-02T10:28:23.823Z,12.38
2022-10-02T10:31:18.095Z,12.36
2022-10-02T10:34:37.264Z,12.51
2022-10-02T10:38:13.671Z,12.51
2022-10-02T10:41:30.037Z,12.68
2022-10-02T10:44:30.998Z,12.89
2022-10-02T10:47:43.190Z,13.06
2022-10-02T10:50:49.525Z,12.89
2022-10-02T10:53:49.156Z,12.50
2022-10-02T10:57:12.693Z,12.04
2022-10-02T11:00:12.339Z,11.95
2022-10-02T11:03:29.396Z,12.04
2022-10-02T11:06:32.642Z,11.98
2022-10-02T11:09:32.410Z,11.89
2022-10-02T11:12:33.341Z,11.94
2022-10-02T11:15:51.912Z,12.05
2022-10-02T11:19:16.766Z,12.23
2022-10-02T11:22:07.785Z,12.10
2022-10-02T11:25:13.997Z,12.01
2022-10-02T11:28:27.954Z,11.94
2022-10-02T11:31:41.951Z,11.70
2022-10-02T11:34:54.874Z,11.55
2022-10-02T11:38:18.930Z,11.51
2022-10-02T11:41:12.681Z,11.42
2022-10-02T11:43:59.130Z,11.34
2022-10-02T11:47:17.412Z,11.35
2022-10-02T11:50:34.713Z,11.37
2022-10-02T11:53:43.986Z,11.48
2022-10-02T11:56:35.033Z,11.53
2022-10-02T11:59:41.622Z,11.70
2022-10-02T12:02:56.920Z,11.77
2022-10-02T12:06:20.330Z,11.74
2022-10-02T12:09:19.638Z,12.13
2022-10-02T12:12:23.468Z,12.23
2022-10-02T12:15:15.307Z,12.25
2022-10-02T12:18:26.480Z,12.12
2022-10-02T12:22:24.164Z,11.65
2022-10-02T12:25:46.588Z,11.30
2022-10-02T12:28:40.598Z,11.03
2022-10-02T12:31:37.747Z,11.02
2022-10-02T12:34:54.917Z,10.91
2022-10-02T12:37:55.935Z,10.89
2022-10-02T12:41:07.978Z,10.94
2022-10-02T12:43:58.932Z,11.10
2022-10-02T12:47:09.324Z,11.30
2022-10-02T12:50:21.078Z,11.37
2022-10-02T12:53:25.067Z,11.10
2022-10-02T12:56:55.819Z,11.03
2022-10-02T12:59:58.038Z,10.89
2022-10-02T13:03:04.920Z,10.73
2022-10-02T13:06:18.449Z,10.80
2022-10-02T13:09:19.341Z,10.89
2022-10-02T13:12:31.853Z,11.14
2022-10-02T13:15:22.905Z,11.32
2022-10-02T13:18:52.336Z,11.47
2022-10-02T13:22:01.956Z,11.58
2022-10-02T13:24:58.939Z,11.52
2022-10-02T13:28:13.051Z,11.56
2022-10-02T13:31:11.313Z,11.49
2022-10-02T13:34:08.816Z,11.32
2022-10-02T13:37:02.341Z,11.24
2022-10-02T13:40:02.384Z,11.32
2022-10-02T13:43:17.323Z,11.47
2022-10-02T13:46:18.905Z,11.57
2022-10-02T13:49:31.204Z,11.57
2022-10-02T13:52:34.425Z,11.44
2022-10-02T13:55:19.485Z,11.29
2022-10-02T13:58:53.017Z,11.16
2022-10-02T14:01:50.041Z,11.08
2022-10-02T14:04:54.826Z,11.02
2022-10-02T14:07:58.960Z,11.06
2022-10-02T14:10:52.799Z,11.05
2022-10-02T14:14:01.206Z,10.93
2022-10-02T14:17:00.582Z,10.85
2022-10-02T14:20:00.738Z,10.84
2022-10-02T14:23:10.032Z,10.70
2022-10-02T14:26:16.404Z,10.59
2022-10-02T14:29:09.070Z,10.49
2022-10-02T14:32:20.533Z,10.40
2022-10-02T14:35:33.634Z,10.31
2022-10-02T14:38:21.270Z,10.28
2022-10-02T14:41:27.624Z,10.34
2022-10-02T14:44:34.736Z,10.36
2022-10-02T14:47:35.266Z,10.35
2022-10-02T14:50:49.160Z,10.32
2022-10-02T14:54:01.943Z,10.31
2022-10-02T14:57:15.204Z,10.28
2022-10-02T15:00:24.149Z,10.28
2022-10-02T15:03:23.616Z,10.30
2022-10-02T15:06:08.352Z,10.29
2022-10-02T15:09:13.342Z,10.24
2022-10-02T15:12:07.222Z,10.24
2022-10-02T15:14:52.070Z,10.20
2022-10-02T15:17:55.043Z,10.16
2022-10-02T15:21:00.646Z,10.06
2022-10-02T15:23:51.561Z,9.95
2022-10-02T15:26:45.902Z,9.90
2022-10-02T15:29:33.988Z,9.84
2022-10-02T15:33:01.520Z,9.74
2022-10-02T15:35:46.533Z,9.72
2022-10-02T15:38:50.165Z,9.70
2022-10-02T15:41:59.755Z,9.65
2022-10-02T15:45:11.003Z,9.68
2022-10-02T15:48:14.439Z,9.70
2022-10-02T15:50:59.167Z,9.70
2022-10-02T15:54:05.582Z,9.69
2022-10-02T15:57:33.527Z,9.69
2022-10-02T16:00:20.876Z,9.70
2022-10-02T16:03:15.598Z,9.69
2022-10-02T16:06:13.007Z,9.70
2022-10-02T16:09:09.706Z,9.71
2022-10-02T16:12:17.290Z,9.68
2022-10-02T16:15:17.679Z,9.65
2022-10-02T16:18:05.513Z,9.62
2022-10-02T16:20:53.281Z,9.63
2022-10-02T16:23:53.428Z,9.64
2022-10-02T16:27:17.371Z,9.60
2022-10-02T16:30:10.492Z,9.53
2022-10-02T16:33:14.330Z,9.50
2022-10-02T16:36:37.786Z,9.45
2022-10-02T16:39:54.699Z,9.45
2022-10-02T16:43:32.189Z,9.40
2022-10-02T16:46:25.462Z,9.38
2022-10-02T16:49:16.264Z,9.26
2022-10-02T16:52:21.438Z,9.12
2022-10-02T16:55:34.097Z,9.02
2022-10-02T16:58:28.087Z,8.97
2022-10-02T17:01:25.716Z,8.92
2022-10-02T17:04:16.807Z,8.90
2022-10-02T17:07:05.740Z,8.87
2022-10-02T17:10:01.755Z,8.81
2022-10-02T17:13:13.243Z,8.62
2022-10-02T17:16:42.178Z,8.54
2022-10-02T17:19:55.594Z,8.42
2022-10-02T17:23:10.029Z,8.40
2022-10-02T17:26:03.823Z,8.35
2022-10-02T17:28:56.724Z,8.30
2022-10-02T17:31:53.778Z,8.26
2022-10-02T17:34:48.917Z,8.28
2022-10-02T17:37:52.820Z,8.28
2022-10-02T17:40:37.447Z,8.31
2022-10-02T17:43:38.655Z,8.25
2022-10-02T17:47:01.245Z,8.24
2022-10-02T17:49:49.034Z,8.16
2022-10-02T17:53:11.198Z,8.14
2022-10-02T17:56:30.017Z,8.09
2022-10-02T17:59:21.450Z,8.05
2022-10-02T18:02:40.319Z,8.00
2022-10-02T18:05:53.543Z,7.97
2022-10-02T18:09:00.460Z,7.96
2022-10-02T18:12:06.937Z,8.00
2022-10-02T18:15:16.361Z,8.01
2022-10-02T18:18:13.282Z,8.00
2022-10-02T18:21:53.158Z,8.04
2022-10-02T18:25:11.133Z,8.07
2022-10-02T18:28:23.597Z,8.05
2022-10-02T18:31:54.672Z,8.07
2022-10-02T18:35:03.649Z,8.10
2022-10-02T18:37:58.303Z,8.06
2022-10-02T18:41:25.489Z,8.02
2022-10-02T18:44:33.641Z,8.00
2022-10-02T18:47:52.353Z,8.00
2022-10-02T18:51:07.211Z,7.96
2022-10-02T18:54:07.454Z,7.92
2022-10-02T18:57:07.222Z,7.89
2022-10-02T19:00:14.900Z,7.88
2022-10-02T19:03:17.140Z,7.89
2022-10-02T19:06:26.957Z,7.87
2022-10-02T19:09:26.372Z,7.88
2022-10-02T19:12:23.349Z,7.87
2022-10-02T19:15:20.736Z,7.90
2022-10-02T19:18:13.967Z,7.94
2022-10-02T19:21:12.508Z,7.94
2022-10-02T19:24:14.574Z,7.96
2022-10-02T19:27:05.273Z,7.96
2022-10-02T19:29:57.497Z,8.02
2022-10-02T19:32:42.334Z,7.99
2022-10-02T19:35:33.824Z,8.00
2022-10-02T19:38:38.241Z,8.05
2022-10-02T19:41:23.263Z,8.04
2022-10-02T19:44:37.644Z,8.06
2022-10-02T19:47:28.877Z,8.07
2022-10-02T19:50:39.743Z,8.04
2022-10-02T19:53:32.788Z,7.95
2022-10-02T19:56:25.699Z,7.82
2022-10-02T19:59:14.546Z,7.76
2022-10-02T20:02:10.591Z,7.74
2022-10-02T20:05:00.723Z,7.70
2022-10-02T20:07:47.723Z,7.69
2022-10-02T20:10:36.221Z,7.65
2022-10-02T20:13:42.901Z,7.64
2022-10-02T20:16:46.100Z,7.59
2022-10-02T20:19:35.612Z,7.58
2022-10-02T20:22:54.921Z,7.57
2022-10-02T20:25:47.629Z,7.56
2022-10-02T20:28:41.865Z,7.57
2022-10-02T20:31:39.602Z,7.55
2022-10-02T20:34:43.680Z,7.60
2022-10-02T20:37:34.287Z,7.60
2022-10-02T20:40:26.968Z,7.59
2022-10-02T20:43:45.648Z,7.64
2022-10-02T20:46:33.291Z,7.66
2022-10-02T20:49:39.695Z,7.67
2022-10-02T20:52:24.315Z,7.71
2022-10-02T20:55:44.486Z,7.75
2022-10-02T20:58:50.747Z,7.78
2022-10-02T21:02:00.569Z,7.80
2022-10-02T21:05:20.414Z,7.86
2022-10-02T21:08:25.508Z,7.89
2022-10-02T21:11:20.427Z,7.91
2022-10-02T21:14:26.780Z,7.96
2022-10-02T21:17:18.061Z,8.01
2022-10-02T21:20:49.821Z,8.11
2022-10-02T21:23:36.162Z,8.20
2022-10-02T21:26:40.007Z,8.32
2022-10-02T21:29:35.361Z,8.41
2022-10-02T21:32:55.507Z,8.51
2022-10-02T21:36:08.576Z,8.55
2022-10-02T21:38:56.861Z,8.62
2022-10-02T21:42:17.141Z,8.68
2022-10-02T21:45:32.702Z,8.78
2022-10-02T21:48:36.457Z,8.83
2022-10-02T21:51:33.572Z,8.91
2022-10-02T21:54:53.276Z,9.03
2022-10-02T21:57:56.947Z,9.09
2022-10-02T22:01:07.805Z,9.17
2022-10-02T22:04:37.620Z,9.22
2022-10-02T22:08:07.602Z,9.25
2022-10-02T22:11:23.483Z,9.26
2022-10-02T22:14:26.377Z,9.25
2022-10-02T22:17:23.493Z,9.28
2022-10-02T22:20:44.033Z,9.30
2022-10-02T22:23:57.751Z,9.33
2022-10-02T22:26:45.328Z,9.35
2022-10-02T22:29:53.080Z,9.37
2022-10-02T22:33:12.797Z,9.41
2022-10-02T22:36:39.733Z,9.43
2022-10-02T22:39:24.259Z,9.44
2022-10-02T22:42:31.453Z,9.45
2022-10-02T22:45:28.703Z,9.44
2022-10-02T22:48:51.206Z,9.46
2022-10-02T22:51:51.855Z,9.47
2022-10-02T22:55:02.450Z,9.46
2022-10-02T22:58:01.918Z,9.46
2022-10-02T23:01:07.865Z,9.47
2022-10-02T23:04:21.165Z,9.46
2022-10-02T23:07:21.578Z,9.48
2022-10-02T23:10:55.003Z,9.49
2022-10-02T23:14:37.892Z,9.50
2022-10-02T23:17:52.157Z,9.50
2022-10-02T23:20:53.230Z,9.47
2022-10-02T23:24:11.983Z,9.49
2022-10-02T23:27:10.033Z,9.50
2022-10-02T23:30:11.763Z,9.50
2022-10-02T23:33:18.458Z,9.49
2022-10-02T23:36:29.891Z,9.49
2022-10-02T23:39:43.990Z,9.52
2022-10-02T23:42:52.094Z,9.50
2022-10-02T23:45:47.874Z,9.49
2022-10-02T23:48:32.948Z,9.45
2022-10-02T23:51:45.303Z,9.45
2022-10-02T23:55:07.395Z,9.45
2022-10-02T23:58:12.573Z,9.45
